createdAt,value
2023-05-19T00:00:15.759Z,99673.63
2023-05-19T00:02:45.627Z,99679.41
2023-05-19T00:05:15.220Z,99676.06
2023-05-19T00:07:45.468Z,99676.91
2023-05-19T00:10:14.403Z,99663.38
2023-05-19T00:12:44.044Z,99663.16
2023-05-19T00:15:14.757Z,99671.78
2023-05-19T00:17:43.195Z,99665.53
2023-05-19T00:20:12.744Z,99661.09
2023-05-19T00:22:40.697Z,99662.91
2023-05-19T00:25:09.343Z,99672.03
2023-05-19T00:27:37.248Z,99666.03
2023-05-19T00:30:06.117Z,99650.97
2023-05-19T00:32:35.881Z,99646.81
2023-05-19T00:35:03.883Z,99663.97
2023-05-19T00:37:31.887Z,99657.28
2023-05-19T00:39:59.877Z,99665.25
2023-05-19T00:42:27.955Z,99658.63
2023-05-19T00:44:56.087Z,99650.38
2023-05-19T00:47:23.991Z,99661.06
2023-05-19T00:49:53.351Z,99652.63
2023-05-19T00:52:21.470Z,99651.69
2023-05-19T00:54:51.255Z,99649.34
2023-05-19T00:57:19.666Z,99655.97
2023-05-19T00:59:48.037Z,99646.81
2023-05-19T01:02:16.192Z,99643.78
2023-05-19T01:04:47.098Z,99649.44
2023-05-19T01:07:16.905Z,99613.09
2023-05-19T01:09:45.245Z,99647.91
2023-05-19T01:12:13.192Z,99644.84
2023-05-19T01:14:41.301Z,99643.13
2023-05-19T01:17:14.508Z,99642.81
2023-05-19T01:20:02.175Z,99642.44
2023-05-19T01:22:44.025Z,99653.72
2023-05-19T01:25:59.613Z,99646.59
2023-05-19T01:28:59.837Z,99655.47
2023-05-19T01:31:29.693Z,99654.91
2023-05-19T01:33:59.235Z,99649.91
2023-05-19T01:36:27.848Z,99659.59
2023-05-19T01:38:58.615Z,99653.22
2023-05-19T01:41:28.554Z,99659.84
2023-05-19T01:43:58.100Z,99652.38
2023-05-19T01:46:26.471Z,99658.31
2023-05-19T01:48:56.325Z,99652.53
2023-05-19T01:51:24.396Z,99657.50
2023-05-19T01:53:52.380Z,99656.38
2023-05-19T01:56:33.776Z,99664.25
2023-05-19T01:59:08.409Z,99653.34
2023-05-19T02:01:46.243Z,99658.78
2023-05-19T02:04:24.423Z,99652.66
2023-05-19T02:07:01.342Z,99653.34
2023-05-19T02:09:39.719Z,99660.72
2023-05-19T02:12:13.437Z,99654.06
2023-05-19T02:14:46.573Z,99656.28
2023-05-19T02:17:17.028Z,99639.06
2023-05-19T02:19:46.476Z,99574.81
2023-05-19T02:22:14.414Z,99667.88
2023-05-19T02:24:42.609Z,99664.13
2023-05-19T02:27:10.730Z,99671.59
2023-05-19T02:29:38.711Z,99672.53
2023-05-19T02:32:08.166Z,99665.91
2023-05-19T02:34:36.213Z,99651.75
2023-05-19T02:37:07.704Z,99650.00
2023-05-19T02:39:35.979Z,99671.13
2023-05-19T02:42:04.084Z,99666.25
2023-05-19T02:44:31.984Z,99653.06
2023-05-19T02:47:00.180Z,99669.50
2023-05-19T02:49:30.913Z,99667.69
2023-05-19T02:51:58.946Z,99663.13
2023-05-19T02:54:28.233Z,99662.44
2023-05-19T02:56:56.273Z,99649.88
2023-05-19T02:59:25.612Z,99673.03
2023-05-19T03:01:56.973Z,99657.31
2023-05-19T03:04:24.961Z,99673.63
2023-05-19T03:06:54.213Z,99669.88
2023-05-19T03:09:22.176Z,99677.94
2023-05-19T03:11:51.598Z,99683.63
2023-05-19T03:14:24.011Z,99681.84
2023-05-19T03:16:52.399Z,99686.25
2023-05-19T03:19:20.739Z,99687.91
2023-05-19T03:21:49.697Z,99681.28
2023-05-19T03:24:17.663Z,99678.53
2023-05-19T03:26:46.008Z,99695.13
2023-05-19T03:29:15.319Z,99687.63
2023-05-19T03:31:43.238Z,99697.63
2023-05-19T03:34:11.213Z,99695.09
2023-05-19T03:36:39.877Z,99693.28
2023-05-19T03:39:08.067Z,99698.09
2023-05-19T03:41:36.009Z,99702.97
2023-05-19T03:44:04.013Z,99704.53
2023-05-19T03:46:33.282Z,99710.63
2023-05-19T03:49:01.397Z,99700.63
2023-05-19T03:51:30.080Z,99705.91
2023-05-19T03:53:58.285Z,99702.25
2023-05-19T03:56:27.577Z,99703.22
2023-05-19T03:58:56.021Z,99697.66
2023-05-19T04:01:23.946Z,99703.75
2023-05-19T04:03:53.247Z,99709.69
2023-05-19T04:06:21.265Z,99722.41
2023-05-19T04:08:49.257Z,99717.03
2023-05-19T04:11:17.204Z,99721.00
2023-05-19T04:13:45.354Z,99724.03
2023-05-19T04:16:13.493Z,99716.13
2023-05-19T04:18:41.490Z,99720.56
2023-05-19T04:21:10.896Z,99709.63
2023-05-19T04:23:38.813Z,99718.81
2023-05-19T04:26:09.866Z,99708.97
2023-05-19T04:28:40.119Z,99720.72
2023-05-19T04:31:11.000Z,99727.19
2023-05-19T04:33:39.310Z,99722.50
2023-05-19T04:36:10.798Z,99723.81
2023-05-19T04:38:40.950Z,99725.72
2023-05-19T04:41:10.911Z,99741.94
2023-05-19T04:43:41.790Z,99735.88
2023-05-19T04:46:13.834Z,99731.91
2023-05-19T04:48:42.834Z,99743.63
2023-05-19T04:51:14.409Z,99740.09
2023-05-19T04:53:44.760Z,99743.00
2023-05-19T04:56:15.511Z,99747.34
2023-05-19T04:58:44.939Z,99746.34
2023-05-19T05:01:15.906Z,99760.25
2023-05-19T05:03:44.457Z,99745.16
2023-05-19T05:06:12.627Z,99758.53
2023-05-19T05:08:41.459Z,99767.53
2023-05-19T05:11:12.014Z,99760.41
2023-05-19T05:13:40.506Z,99753.88
2023-05-19T05:16:09.593Z,99764.44
2023-05-19T05:18:38.897Z,99753.22
2023-05-19T05:21:08.210Z,99759.88
2023-05-19T05:23:36.859Z,99763.84
2023-05-19T05:26:10.846Z,99766.31
2023-05-19T05:28:40.212Z,99763.19
2023-05-19T05:31:08.104Z,99770.47
2023-05-19T05:33:36.093Z,99766.69
2023-05-19T05:36:04.658Z,99765.84
2023-05-19T05:38:32.901Z,99767.34
2023-05-19T05:41:00.928Z,99772.47
2023-05-19T05:43:28.863Z,99781.38
2023-05-19T05:45:58.266Z,99779.09
2023-05-19T05:48:26.979Z,99782.75
2023-05-19T05:50:55.768Z,99779.75
2023-05-19T05:53:26.528Z,99779.94
2023-05-19T05:55:55.203Z,99784.75
2023-05-19T05:58:24.292Z,99792.34
2023-05-19T06:00:53.597Z,99783.25
2023-05-19T06:03:24.544Z,99797.59
2023-05-19T06:05:52.821Z,99794.94
2023-05-19T06:08:20.882Z,99800.56
2023-05-19T06:10:48.849Z,99798.91
2023-05-19T06:13:22.307Z,99809.13
2023-05-19T06:15:50.438Z,99808.31
2023-05-19T06:18:18.513Z,99808.28
2023-05-19T06:20:47.868Z,99814.09
2023-05-19T06:23:15.902Z,99816.25
2023-05-19T06:25:44.070Z,99823.22
2023-05-19T06:28:12.267Z,99815.47
2023-05-19T06:30:40.185Z,99818.44
2023-05-19T06:33:08.359Z,99819.28
2023-05-19T06:35:36.366Z,99820.75
2023-05-19T06:38:05.691Z,99821.03
2023-05-19T06:40:34.021Z,99821.81
2023-05-19T06:43:02.146Z,99819.47
2023-05-19T06:45:30.102Z,99824.47
2023-05-19T06:47:58.509Z,99803.69
2023-05-19T06:50:26.635Z,99828.19
2023-05-19T06:52:54.625Z,99820.22
2023-05-19T06:55:24.159Z,99808.53
2023-05-19T06:57:52.135Z,99825.66
2023-05-19T07:00:32.032Z,99824.03
2023-05-19T07:03:00.329Z,99823.00
2023-05-19T07:05:28.482Z,99813.91
2023-05-19T07:07:56.493Z,99820.06
2023-05-19T07:10:26.001Z,99822.72
2023-05-19T07:12:54.053Z,99816.06
2023-05-19T07:15:22.093Z,99807.75
2023-05-19T07:17:50.120Z,99813.34
2023-05-19T07:20:18.251Z,99799.72
2023-05-19T07:22:46.219Z,99800.13
2023-05-19T07:25:14.115Z,99797.34
2023-05-19T07:27:43.405Z,99806.38
2023-05-19T07:30:12.206Z,99810.25
2023-05-19T07:32:40.175Z,99812.41
2023-05-19T07:35:08.545Z,99813.88
2023-05-19T07:37:36.470Z,99816.91
2023-05-19T07:40:05.111Z,99810.19
2023-05-19T07:42:33.126Z,99817.53
2023-05-19T07:45:03.374Z,99810.91
2023-05-19T07:47:31.920Z,99818.72
2023-05-19T07:49:59.867Z,99799.94
2023-05-19T07:52:27.895Z,99818.56
2023-05-19T07:54:55.781Z,99818.34
2023-05-19T07:57:23.703Z,99827.53
2023-05-19T07:59:51.698Z,99825.53
2023-05-19T08:02:21.060Z,99813.78
2023-05-19T08:04:49.592Z,99821.28
2023-05-19T08:07:17.576Z,99833.31
2023-05-19T08:09:45.474Z,99825.59
2023-05-19T08:12:13.444Z,99834.88
2023-05-19T08:14:41.367Z,99831.69
2023-05-19T08:17:09.290Z,99843.59
2023-05-19T08:19:38.622Z,99844.78
2023-05-19T08:22:06.617Z,99843.69
2023-05-19T08:24:34.607Z,99842.94
2023-05-19T08:27:02.625Z,99840.19
2023-05-19T08:29:30.755Z,99835.75
2023-05-19T08:31:59.537Z,99837.88
2023-05-19T08:34:27.452Z,99845.31
2023-05-19T08:36:57.819Z,99842.19
2023-05-19T08:39:27.105Z,99840.03
2023-05-19T08:41:55.305Z,99840.59
2023-05-19T08:44:23.670Z,99841.72
2023-05-19T08:46:54.150Z,99839.44
2023-05-19T08:49:28.327Z,99839.38
2023-05-19T08:52:03.753Z,99834.16
2023-05-19T08:54:40.222Z,99830.53
2023-05-19T08:57:10.067Z,99809.25
2023-05-19T08:59:38.702Z,99832.03
2023-05-19T09:04:35.932Z,99828.03
2023-05-19T09:07:05.570Z,99812.78
2023-05-19T09:09:33.958Z,99829.97
2023-05-19T09:12:02.057Z,99806.28
2023-05-19T09:14:30.869Z,99820.81
2023-05-19T09:16:58.935Z,99831.09
2023-05-19T09:19:30.176Z,99827.19
2023-05-19T09:22:03.324Z,99793.19
2023-05-19T09:24:35.036Z,99814.50
2023-05-19T09:27:03.083Z,99817.81
2023-05-19T09:29:31.144Z,99819.03
2023-05-19T09:32:01.642Z,99814.22
2023-05-19T09:34:29.675Z,99816.25
2023-05-19T09:36:57.846Z,99817.53
2023-05-19T09:39:26.233Z,99821.97
2023-05-19T09:41:58.540Z,99817.00
2023-05-19T09:44:29.453Z,99813.34
2023-05-19T09:46:58.727Z,99804.53
2023-05-19T09:49:29.652Z,99815.94
2023-05-19T09:51:58.568Z,99811.69
2023-05-19T09:54:29.892Z,99816.19
2023-05-19T09:57:03.668Z,99814.81
2023-05-19T09:59:33.786Z,99807.09
2023-05-19T10:02:03.042Z,99812.03
2023-05-19T10:04:32.418Z,99811.16
2023-05-19T10:07:01.614Z,99789.03
2023-05-19T10:09:31.026Z,99808.75
2023-05-19T10:12:01.245Z,99814.09
2023-05-19T10:14:30.627Z,99804.81
2023-05-19T10:16:59.794Z,99795.38
2023-05-19T10:19:29.689Z,99800.66
2023-05-19T10:21:58.068Z,99791.31
2023-05-19T10:24:26.340Z,99792.97
2023-05-19T10:26:58.026Z,99781.53
2023-05-19T10:29:34.570Z,99780.03
2023-05-19T10:32:08.264Z,99779.97
2023-05-19T10:35:13.928Z,99788.47
2023-05-19T10:37:47.595Z,99783.06
2023-05-19T10:40:23.587Z,99783.13
2023-05-19T10:43:07.957Z,99783.78
2023-05-19T10:45:43.273Z,99782.75
2023-05-19T10:48:12.760Z,99779.88
2023-05-19T10:50:40.917Z,99789.69
2023-05-19T10:53:18.145Z,99792.25
2023-05-19T10:55:47.879Z,99795.44
2023-05-19T10:58:15.809Z,99791.69
2023-05-19T11:00:45.188Z,99790.63
2023-05-19T11:03:14.800Z,99790.19
2023-05-19T11:05:45.542Z,99775.63
2023-05-19T11:08:14.228Z,99783.81
2023-05-19T11:10:46.021Z,99784.97
2023-05-19T11:13:23.013Z,99794.13
2023-05-19T11:15:53.702Z,99791.88
2023-05-19T11:18:22.120Z,99791.97
2023-05-19T11:20:59.153Z,99793.59
2023-05-19T11:23:27.281Z,99787.84
2023-05-19T11:25:55.274Z,99781.69
2023-05-19T11:28:26.636Z,99767.63
2023-05-19T11:30:59.089Z,99782.75
2023-05-19T11:33:27.862Z,99777.34
2023-05-19T11:35:58.959Z,99787.31
2023-05-19T11:38:28.393Z,99788.94
2023-05-19T11:40:57.613Z,99795.06
2023-05-19T11:43:26.170Z,99774.16
2023-05-19T11:45:56.908Z,99781.38
2023-05-19T11:48:27.394Z,99770.56
2023-05-19T11:50:56.795Z,99762.03
2023-05-19T11:53:24.802Z,99773.47
2023-05-19T11:55:52.938Z,99770.84
2023-05-19T11:58:27.303Z,99768.28
2023-05-19T12:00:56.784Z,99765.88
2023-05-19T12:03:28.799Z,99766.53
2023-05-19T12:05:57.836Z,99768.16
2023-05-19T12:08:27.246Z,99758.69
2023-05-19T12:10:56.242Z,99768.38
2023-05-19T12:13:24.233Z,99770.84
2023-05-19T12:15:53.008Z,99767.72
2023-05-19T12:18:22.435Z,99760.50
2023-05-19T12:20:50.751Z,99753.03
2023-05-19T12:23:18.988Z,99762.88
2023-05-19T12:25:47.211Z,99755.44
2023-05-19T12:28:17.238Z,99757.50
2023-05-19T12:30:49.174Z,99756.66
2023-05-19T12:33:17.287Z,99750.75
2023-05-19T12:35:47.731Z,99756.97
2023-05-19T12:38:15.984Z,99752.84
2023-05-19T12:40:44.370Z,99754.72
2023-05-19T12:43:21.017Z,99752.38
2023-05-19T12:45:49.187Z,99746.44
2023-05-19T12:48:17.340Z,99748.63
2023-05-19T12:50:46.889Z,99736.78
2023-05-19T12:53:16.042Z,99741.31
2023-05-19T12:55:46.061Z,99725.00
2023-05-19T12:58:16.731Z,99696.25
2023-05-19T13:00:49.810Z,99730.50
2023-05-19T13:03:19.722Z,99736.75
2023-05-19T13:05:50.601Z,99735.00
2023-05-19T13:08:21.617Z,99723.00
2023-05-19T13:10:50.212Z,99707.41
2023-05-19T13:13:18.681Z,99737.06
2023-05-19T13:15:49.415Z,99737.19
2023-05-19T13:18:18.394Z,99739.16
2023-05-19T13:20:47.264Z,99739.38
2023-05-19T13:23:17.821Z,99723.34
2023-05-19T13:25:45.833Z,99723.16
2023-05-19T13:28:14.073Z,99738.56
2023-05-19T13:30:44.726Z,99730.31
2023-05-19T13:33:13.103Z,99730.59
2023-05-19T13:35:41.276Z,99736.38
2023-05-19T13:38:10.857Z,99726.44
2023-05-19T13:40:41.033Z,99739.19
2023-05-19T13:43:09.923Z,99735.28
2023-05-19T13:45:38.329Z,99731.81
2023-05-19T13:48:07.893Z,99735.72
2023-05-19T13:50:36.134Z,99740.22
2023-05-19T13:53:04.746Z,99733.22
2023-05-19T13:55:33.051Z,99738.09
2023-05-19T13:58:03.445Z,99730.91
2023-05-19T14:00:32.552Z,99730.31
2023-05-19T14:03:00.983Z,99721.34
2023-05-19T14:05:29.296Z,99732.41
2023-05-19T14:07:58.080Z,99741.44
2023-05-19T14:10:26.339Z,99745.06
2023-05-19T14:13:25.872Z,99748.66
2023-05-19T14:15:44.343Z,99752.13
2023-05-19T14:18:12.492Z,99813.69
2023-05-19T14:20:40.543Z,99813.94
2023-05-19T14:23:08.435Z,99797.66
2023-05-19T14:25:36.344Z,99827.72
2023-05-19T14:28:04.312Z,99820.09
2023-05-19T14:30:32.685Z,99833.38
2023-05-19T14:33:02.285Z,99837.59
2023-05-19T14:35:30.311Z,99846.94
2023-05-19T14:37:58.410Z,99823.88
2023-05-19T14:40:26.379Z,99848.41
2023-05-19T14:42:54.276Z,99847.91
2023-05-19T14:45:22.253Z,99854.59
2023-05-19T14:47:50.259Z,99865.09
2023-05-19T14:50:19.820Z,99861.00
2023-05-19T14:52:47.818Z,99864.84
2023-05-19T14:55:15.806Z,99867.53
2023-05-19T14:57:43.887Z,99879.00
2023-05-19T15:00:12.747Z,99894.94
2023-05-19T15:02:41.009Z,99894.94
2023-05-19T15:05:09.842Z,99898.66
2023-05-19T15:07:39.191Z,99906.88
2023-05-19T15:10:07.898Z,99911.53
2023-05-19T15:12:36.014Z,99904.72
2023-05-19T15:15:05.141Z,99902.81
2023-05-19T15:17:33.291Z,99897.56
2023-05-19T15:20:01.402Z,99893.47
2023-05-19T15:22:29.458Z,99877.81
2023-05-19T15:24:58.816Z,99888.50
2023-05-19T15:27:26.779Z,99885.50
2023-05-19T15:29:54.794Z,99890.47
2023-05-19T15:32:22.760Z,99889.41
2023-05-19T15:34:50.862Z,99891.16
2023-05-19T15:37:18.836Z,99891.25
2023-05-19T15:39:46.819Z,99887.75
2023-05-19T15:42:16.217Z,99889.16
2023-05-19T15:44:45.976Z,99881.59
2023-05-19T15:47:13.988Z,99879.53
2023-05-19T15:49:41.924Z,99882.91
2023-05-19T15:52:09.867Z,99896.47
2023-05-19T15:54:37.871Z,99894.94
2023-05-19T15:57:06.072Z,99898.25
2023-05-19T15:59:35.406Z,99906.78
2023-05-19T16:02:03.654Z,99903.28
2023-05-19T16:04:31.707Z,99902.59
2023-05-19T16:06:59.636Z,99912.78
2023-05-19T16:09:27.542Z,99909.75
2023-05-19T16:11:55.494Z,99914.59
2023-05-19T16:14:24.503Z,99904.19
2023-05-19T16:16:53.822Z,99905.84
2023-05-19T16:19:21.990Z,99916.75
2023-05-19T16:21:50.005Z,99920.13
2023-05-19T16:24:17.938Z,99919.13
2023-05-19T16:26:46.441Z,99915.84
2023-05-19T16:29:14.393Z,99921.84
2023-05-19T16:31:42.427Z,99919.13
2023-05-19T16:34:11.777Z,99906.34
2023-05-19T16:36:39.718Z,99902.44
2023-05-19T16:39:07.712Z,99901.78
2023-05-19T16:41:35.704Z,99902.69
2023-05-19T16:44:03.790Z,99875.47
2023-05-19T16:46:31.841Z,99896.03
2023-05-19T16:48:59.903Z,99911.91
2023-05-19T16:51:29.311Z,99921.41
2023-05-19T16:53:57.304Z,99915.03
2023-05-19T16:56:25.371Z,99913.03
2023-05-19T16:58:54.727Z,99904.41
2023-05-19T17:01:22.781Z,99908.44
2023-05-19T17:03:50.784Z,99904.75
2023-05-19T17:06:18.783Z,99900.00
2023-05-19T17:08:48.116Z,99911.63
2023-05-19T17:11:16.081Z,99897.91
2023-05-19T17:13:46.355Z,99905.53
2023-05-19T17:16:14.350Z,99885.47
2023-05-19T17:18:43.755Z,99911.34
2023-05-19T17:21:11.922Z,99906.00
2023-05-19T17:23:39.937Z,99904.06
2023-05-19T17:26:09.264Z,99902.59
2023-05-19T17:28:37.225Z,99899.06
2023-05-19T17:31:11.174Z,99896.53
2023-05-19T17:33:39.254Z,99903.94
2023-05-19T17:36:08.534Z,99904.94
2023-05-19T17:38:40.235Z,99907.16
2023-05-19T17:41:11.032Z,99909.09
2023-05-19T17:43:40.048Z,99913.03
2023-05-19T17:46:08.362Z,99896.91
2023-05-19T17:48:36.917Z,99890.16
2023-05-19T17:51:07.098Z,99903.22
2023-05-19T17:53:36.660Z,99880.69
2023-05-19T17:56:10.134Z,99884.84
2023-05-19T17:58:41.340Z,99891.81
2023-05-19T18:01:09.910Z,99881.28
2023-05-19T18:03:38.489Z,99886.81
2023-05-19T18:06:07.953Z,99890.13
2023-05-19T18:08:37.796Z,99891.09
2023-05-19T18:11:06.157Z,99893.19
2023-05-19T18:13:34.093Z,99906.53
2023-05-19T18:16:03.382Z,99907.66
2023-05-19T18:18:31.435Z,99902.81
2023-05-19T18:20:59.365Z,99902.00
2023-05-19T18:23:27.353Z,99900.06
2023-05-19T18:25:55.420Z,99912.50
2023-05-19T18:28:24.691Z,99919.88
2023-05-19T18:31:00.202Z,99933.13
2023-05-19T18:33:31.283Z,99931.56
2023-05-19T18:35:59.950Z,99931.66
2023-05-19T18:38:28.113Z,99930.66
2023-05-19T18:40:56.748Z,99934.66
2023-05-19T18:43:24.803Z,99934.56
2023-05-19T18:45:53.002Z,99936.19
2023-05-19T18:48:22.546Z,99941.84
2023-05-19T18:50:51.997Z,99945.16
2023-05-19T18:53:20.142Z,99938.06
2023-05-19T18:55:48.082Z,99942.34
2023-05-19T18:58:16.042Z,99945.81
2023-05-19T19:00:44.081Z,99939.47
2023-05-19T19:03:12.261Z,99939.94
2023-05-19T19:05:40.742Z,99946.56
2023-05-19T19:08:10.097Z,99943.41
2023-05-19T19:10:40.491Z,99950.88
2023-05-19T19:13:08.453Z,99949.41
2023-05-19T19:15:36.456Z,99951.09
2023-05-19T19:18:05.509Z,99953.09
2023-05-19T19:20:35.004Z,99949.09
2023-05-19T19:23:06.388Z,99968.66
2023-05-19T19:25:36.288Z,99972.97
2023-05-19T19:28:04.230Z,99973.78
2023-05-19T19:30:32.520Z,99973.78
2023-05-19T19:33:00.820Z,99982.06
2023-05-19T19:35:28.826Z,99987.72
2023-05-19T19:37:57.024Z,99980.94
2023-05-19T19:40:25.441Z,99977.25
2023-05-19T19:42:54.757Z,99972.16
2023-05-19T19:45:22.717Z,99977.94
2023-05-19T19:47:51.722Z,99981.28
2023-05-19T19:50:19.978Z,99987.38
2023-05-19T19:52:47.862Z,99983.59
2023-05-19T19:55:16.027Z,99985.09
2023-05-19T19:57:45.715Z,99965.38
2023-05-19T20:00:16.685Z,99977.94
2023-05-19T20:03:02.931Z,99977.63
2023-05-19T20:05:32.767Z,99979.94
2023-05-19T20:08:00.721Z,99984.25
2023-05-19T20:10:28.703Z,99991.38
2023-05-19T20:12:58.879Z,99991.88
2023-05-19T20:15:28.226Z,99991.69
2023-05-19T20:17:56.352Z,99984.44
2023-05-19T20:20:24.283Z,99977.97
2023-05-19T20:22:52.309Z,99976.78
2023-05-19T20:25:20.260Z,99985.22
2023-05-19T20:27:48.261Z,99979.44
2023-05-19T20:30:16.453Z,99977.59
2023-05-19T20:32:46.658Z,99981.03
2023-05-19T20:35:15.062Z,99989.84
2023-05-19T20:37:43.195Z,99971.09
2023-05-19T20:40:11.689Z,99987.16
2023-05-19T20:42:40.678Z,99992.13
2023-05-19T20:45:09.428Z,99973.09
2023-05-19T20:47:37.556Z,99978.59
2023-05-19T20:50:08.036Z,99981.38
2023-05-19T20:52:36.055Z,99981.50
2023-05-19T20:55:04.280Z,99972.91
2023-05-19T20:57:32.210Z,99984.66
2023-05-19T21:00:00.768Z,99967.84
2023-05-19T21:02:28.799Z,99978.44
2023-05-19T21:04:56.780Z,99960.50
2023-05-19T21:07:26.350Z,99956.75
2023-05-19T21:09:54.457Z,99974.09
2023-05-19T21:12:25.157Z,99966.50
2023-05-19T21:14:53.081Z,99964.03
2023-05-19T21:17:21.507Z,99960.03
2023-05-19T21:19:50.760Z,99962.66
2023-05-19T21:22:18.798Z,99971.09
2023-05-19T21:24:48.077Z,99969.47
2023-05-19T21:27:16.135Z,99969.31
2023-05-19T21:29:44.035Z,99970.06
2023-05-19T21:32:12.047Z,99978.34
2023-05-19T21:34:39.986Z,99979.53
2023-05-19T21:37:07.956Z,99969.56
2023-05-19T21:39:36.140Z,99965.78
2023-05-19T21:42:06.455Z,99977.66
2023-05-19T21:44:34.395Z,99983.41
2023-05-19T21:47:02.388Z,99961.03
2023-05-19T21:49:31.155Z,99971.53
2023-05-19T21:51:59.234Z,99969.69
2023-05-19T21:54:27.289Z,99968.72
2023-05-19T21:56:55.265Z,99974.09
2023-05-19T21:59:24.902Z,99966.66
2023-05-19T22:01:53.112Z,99956.34
2023-05-19T22:04:21.793Z,99968.13
2023-05-19T22:06:49.830Z,99974.19
2023-05-19T22:09:18.146Z,99967.78
2023-05-19T22:11:46.364Z,99970.25
2023-05-19T22:14:14.453Z,99967.41
2023-05-19T22:16:43.988Z,99964.41
2023-05-19T22:19:12.879Z,99960.78
2023-05-19T22:21:41.126Z,99963.28
2023-05-19T22:24:09.040Z,99961.75
2023-05-19T22:26:37.088Z,99958.63
2023-05-19T22:29:05.094Z,99954.25
2023-05-19T22:31:33.042Z,99951.91
2023-05-19T22:34:02.382Z,99950.25
2023-05-19T22:36:31.256Z,99948.97
2023-05-19T22:38:59.228Z,99947.94
2023-05-19T22:41:27.381Z,99949.72
2023-05-19T22:43:55.325Z,99945.47
2023-05-19T22:46:23.236Z,99947.34
2023-05-19T22:48:51.210Z,99940.31
2023-05-19T22:51:20.618Z,99948.91
2023-05-19T22:53:48.975Z,99941.63
2023-05-19T22:56:17.905Z,99928.66
2023-05-19T22:58:45.809Z,99938.16
2023-05-19T23:01:13.810Z,99938.97
2023-05-19T23:03:41.753Z,99936.44
2023-05-19T23:06:09.769Z,99932.94
2023-05-19T23:08:39.157Z,99924.63
2023-05-19T23:11:07.073Z,99928.03
2023-05-19T23:13:35.000Z,99928.03
2023-05-19T23:16:03.033Z,99926.88
2023-05-19T23:18:31.146Z,99917.91
2023-05-19T23:20:59.061Z,99912.09
2023-05-19T23:23:28.187Z,99907.00
2023-05-19T23:25:58.567Z,99907.06
2023-05-19T23:28:26.469Z,99897.53
2023-05-19T23:30:54.617Z,99903.91
2023-05-19T23:33:22.718Z,99889.03
2023-05-19T23:35:50.913Z,99895.09
2023-05-19T23:38:18.914Z,99877.91
2023-05-19T23:40:46.898Z,99891.78
2023-05-19T23:43:16.227Z,99892.44
2023-05-19T23:45:44.177Z,99894.03
2023-05-19T23:48:12.232Z,99894.75
2023-05-19T23:50:40.239Z,99874.53
2023-05-19T23:53:08.239Z,99891.91
2023-05-19T23:55:36.309Z,99890.16
2023-05-19T23:58:04.357Z,99894.59
